Sutton, Nebraska
Current Conditions -  °F | °C
As of 7:35 AM on Saturday 25 Oct 2014 (Local Time) from KAUH Reporting Station
Clear Clear  
Wind Chill: 44°   Ceiling: Unl
Heat Index: 44°   Visibility: 10mi
Dew Point: 41°   Wind: 3mph
Humidity: 89%   Direction: 360°N
Pressure: 30.09"   Gusts: NA
Location:  40.61°N, 97.86°W
Report Text: KAUH 251235Z AUTO 36003KT 10SM CLR 07/05 A3009 RMK AO2 T00680051
Loading
Personal Weather Stations






























Interactive Weather Map
Tropical Storm Tracking
New forecast layout! Learn more

10-Day Weather Forecast

Advertisements
Track Severe Weather on mobile